Accueil
METAR-TAF:

METAR-TAF

Aéroports :

Reykjavík, Islande

Aéroport de Reykjavik

latitude: 64-08N, longitude: 021-54W, altitude: 54 m

Observation

Le bulletin a été fait il y a 51 minutes, à 01:00 UTC
Vent 6 kt de sud-est
Température 8°C
Humidité 76%
Pression 1013 hPa
Visibilité 10 km ou plus
pas de nuages en-dessous de 1500 mètres et pas de cumulonimbus.

METAR: BIRK 190100Z 13006KT CAVOK 08/04 Q1013

Heure: 01:51 (01:51 UTC)

Prévision

Le bulletin a été fait il y a 3 heures et 9 minutes, à 22:42 UTC
Prévision valable du 19 à 00 UTC au 19 à 24 UTC
Vent 5 kt de nord-est
Visibilité 10 km ou plus
Quelques nuages à une hauteur de 3500 ft
Evoluant progressivement
du 19 à 12 UTC au 19 à 15 UTC
Vent 15 kt de nord

TAF: BIRK 182242Z 1900/1924 05005KT 9999 FEW035 TX15/1915Z TN06/1905Z BECMG 1912/1915 01015KT

Observations et prévisions météorologiques de plus de 4000 aéroports (messages METAR et TAF).

Les stations disponibles sont représentées par des disques jaunes et rouges sur la carte.

Passer la souris dessus pour voir le nom de la station.

Cliquer dessus pour voir les observations et prévisions météorologiques.

Pour changer de carte: cliquez sur les boutons verts avec une croix noire pour zoomer, sur le bouton vert avec un tiret pour effectuer un zoom arrière, ou sur les flèches vertes pour les cartes adjacentes.


METAR-TAF: